Time;durP1;ratioP1;P1;durP2;ratioP2;P2;SDS_P1;SDS_P2;PMS_P1;PMS_P2;Temp;Humidity;BMP_temperature;BMP_pressure;BME280_temperature;BME280_humidity;BME280_pressure;Samples;Min_cycle;Max_cycle;Signal;HPM_P1;HPM_P2
2023/12/21 00:02:01;;;;;;;14.05;3.40;;;;;;;;;;5078918;28;20048;-85
2023/12/21 00:04:27;;;;;;;11.45;2.70;;;;;;;;;;5079230;28;20570;-85
2023/12/21 00:06:53;;;;;;;15.55;3.78;;;;;;;;;;5079363;28;20048;-85
2023/12/21 00:09:19;;;;;;;15.43;3.33;;;;;;;;;;5096211;28;20035;-85
2023/12/21 00:11:45;;;;;;;15.43;3.22;;;;;;;;;;5079083;28;20104;-85
2023/12/21 00:14:12;;;;;;;15.05;3.40;;;;;;;;;;5095857;28;20059;-85
2023/12/21 00:16:38;;;;;;;10.65;3.10;;;;;;;;;;5078856;28;20046;-85
2023/12/21 00:19:04;;;;;;;15.25;3.22;;;;;;;;;;5078989;28;20544;-85
2023/12/21 00:21:30;;;;;;;17.35;3.55;;;;;;;;;;5095811;28;20384;-85
2023/12/21 00:23:56;;;;;;;12.00;3.00;;;;;;;;;;5079031;28;20048;-85
2023/12/21 00:26:22;;;;;;;16.00;2.95;;;;;;;;;;5079112;28;20047;-85
2023/12/21 00:28:48;;;;;;;14.65;2.67;;;;;;;;;;5078607;28;20146;-85
2023/12/21 00:31:14;;;;;;;15.90;3.25;;;;;;;;;;5079250;28;20063;-85
2023/12/21 00:33:40;;;;;;;18.17;4.30;;;;;;;;;;5079202;28;20079;-85
2023/12/21 00:36:06;;;;;;;14.40;2.92;;;;;;;;;;5078718;28;20051;-85
2023/12/21 00:38:32;;;;;;;16.58;3.53;;;;;;;;;;5095324;28;20077;-85
2023/12/21 00:40:59;;;;;;;17.73;3.60;;;;;;;;;;5078580;28;20077;-85
2023/12/21 00:43:25;;;;;;;14.10;3.20;;;;;;;;;;5078717;28;20170;-85
2023/12/21 00:45:51;;;;;;;16.55;4.38;;;;;;;;;;5079684;28;20135;-86
2023/12/21 00:48:18;;;;;;;14.55;3.83;;;;;;;;;;5099435;28;20044;-84
2023/12/21 00:50:45;;;;;;;16.67;4.13;;;;;;;;;;5082458;28;20054;-85
2023/12/21 00:53:11;;;;;;;21.33;5.20;;;;;;;;;;5099189;28;20058;-85
2023/12/21 00:55:37;;;;;;;16.75;3.88;;;;;;;;;;5082134;28;20051;-85
2023/12/21 00:58:03;;;;;;;20.55;4.70;;;;;;;;;;5081478;28;20108;-84
2023/12/21 01:00:29;;;;;;;16.98;4.45;;;;;;;;;;5082431;28;20051;-85
2023/12/21 01:02:55;;;;;;;15.25;3.85;;;;;;;;;;5098983;28;20152;-85
2023/12/21 01:05:21;;;;;;;19.65;3.75;;;;;;;;;;5098898;28;20118;-85
2023/12/21 01:07:47;;;;;;;21.95;4.47;;;;;;;;;;5082282;28;20063;-85
2023/12/21 01:10:13;;;;;;;21.98;4.35;;;;;;;;;;5098816;28;20121;-85
2023/12/21 01:12:39;;;;;;;19.48;4.65;;;;;;;;;;5098804;28;20050;-85
2023/12/21 01:15:07;;;;;;;15.20;4.10;;;;;;;;;;5098718;28;20073;-84
2023/12/21 01:17:34;;;;;;;14.80;3.65;;;;;;;;;;5081485;28;20035;-85
2023/12/21 01:20:00;;;;;;;16.27;4.28;;;;;;;;;;5081835;28;20047;-85
2023/12/21 01:22:26;;;;;;;12.68;3.67;;;;;;;;;;5081442;28;20047;-85
2023/12/21 01:24:52;;;;;;;19.50;4.60;;;;;;;;;;5082621;28;20043;-85
2023/12/21 01:27:20;;;;;;;21.02;5.40;;;;;;;;;;5081619;28;20047;-85
2023/12/21 01:29:46;;;;;;;15.93;4.05;;;;;;;;;;5081997;28;20078;-85
2023/12/21 01:32:12;;;;;;;18.52;4.20;;;;;;;;;;5098690;28;20043;-85
2023/12/21 01:34:38;;;;;;;14.73;5.03;;;;;;;;;;5081494;28;20048;-85
2023/12/21 01:37:05;;;;;;;17.35;4.03;;;;;;;;;;5081241;28;20039;-85
2023/12/21 01:39:31;;;;;;;15.82;4.65;;;;;;;;;;5081458;28;20051;-85
2023/12/21 01:41:57;;;;;;;15.43;3.53;;;;;;;;;;5081435;28;20051;-85
2023/12/21 01:44:23;;;;;;;15.55;3.95;;;;;;;;;;5081594;28;20043;-85
2023/12/21 01:46:49;;;;;;;17.73;3.22;;;;;;;;;;5081422;28;20062;-86
2023/12/21 01:49:15;;;;;;;18.50;3.95;;;;;;;;;;5081600;28;20054;-85
2023/12/21 01:51:42;;;;;;;14.40;3.42;;;;;;;;;;5081353;28;20104;-84
2023/12/21 01:54:08;;;;;;;15.80;3.75;;;;;;;;;;5081892;28;20361;-85
2023/12/21 01:56:34;;;;;;;18.15;3.08;;;;;;;;;;5097778;28;20146;-85
2023/12/21 01:59:00;;;;;;;16.13;3.50;;;;;;;;;;5080262;28;20110;-85
2023/12/21 02:01:27;;;;;;;20.17;3.85;;;;;;;;;;5098118;28;20107;-85
2023/12/21 02:03:54;;;;;;;12.90;3.63;;;;;;;;;;5080829;28;20051;-85
2023/12/21 02:06:20;;;;;;;14.98;3.63;;;;;;;;;;5097759;28;20384;-85
2023/12/21 02:08:47;;;;;;;20.10;4.00;;;;;;;;;;5097664;28;20044;-85
2023/12/21 02:11:13;;;;;;;16.52;3.30;;;;;;;;;;5080757;28;20039;-85
2023/12/21 02:13:39;;;;;;;16.67;3.67;;;;;;;;;;5097619;28;20048;-84
2023/12/21 02:16:07;;;;;;;17.98;3.38;;;;;;;;;;5098224;28;20043;-84
2023/12/21 02:18:33;;;;;;;17.50;3.75;;;;;;;;;;5080485;28;20078;-84
2023/12/21 02:20:59;;;;;;;18.58;3.33;;;;;;;;;;5080620;28;20047;-84
2023/12/21 02:23:27;;;;;;;15.48;1.95;;;;;;;;;;5097382;28;20449;-84
2023/12/21 02:25:53;;;;;;;19.92;3.10;;;;;;;;;;5081313;28;20058;-84
2023/12/21 02:28:19;;;;;;;15.75;2.83;;;;;;;;;;5080477;28;20051;-85
2023/12/21 02:30:47;;;;;;;24.38;3.10;;;;;;;;;;5098074;28;20051;-85
2023/12/21 02:33:14;;;;;;;12.98;2.33;;;;;;;;;;5080261;28;20081;-85
2023/12/21 02:35:40;;;;;;;18.63;3.28;;;;;;;;;;5080206;28;20157;-84
2023/12/21 02:38:06;;;;;;;19.83;3.63;;;;;;;;;;5080077;28;20574;-84
2023/12/21 02:40:32;;;;;;;13.93;2.42;;;;;;;;;;5097061;28;20124;-85
2023/12/21 02:42:58;;;;;;;15.48;3.08;;;;;;;;;;5080141;28;20463;-85
2023/12/21 02:45:24;;;;;;;18.90;3.30;;;;;;;;;;5080927;28;20130;-85
2023/12/21 02:47:50;;;;;;;19.35;3.10;;;;;;;;;;5096989;28;20074;-85
2023/12/21 02:50:16;;;;;;;15.32;2.83;;;;;;;;;;5096857;28;20039;-85
2023/12/21 02:52:42;;;;;;;17.95;3.25;;;;;;;;;;5097230;28;20414;-84
2023/12/21 02:55:09;;;;;;;19.45;3.78;;;;;;;;;;5080838;28;20047;-84
2023/12/21 02:57:35;;;;;;;19.98;3.85;;;;;;;;;;5079412;28;20063;-84
2023/12/21 03:00:01;;;;;;;20.75;3.88;;;;;;;;;;5096672;28;20052;-84
2023/12/21 03:02:27;;;;;;;12.55;3.92;;;;;;;;;;5096926;28;20050;-84
2023/12/21 03:04:53;;;;;;;16.40;3.85;;;;;;;;;;5079725;28;20047;-85
2023/12/21 03:07:19;;;;;;;16.65;4.40;;;;;;;;;;5096530;28;20043;-84
2023/12/21 03:09:45;;;;;;;18.02;4.68;;;;;;;;;;5096139;28;20051;-84
2023/12/21 03:12:11;;;;;;;19.65;5.18;;;;;;;;;;5096513;28;20050;-84
2023/12/21 03:14:37;;;;;;;16.83;5.32;;;;;;;;;;5096126;28;20104;-85
2023/12/21 03:17:03;;;;;;;14.85;4.68;;;;;;;;;;5079477;28;20049;-85
2023/12/21 03:19:29;;;;;;;17.13;5.75;;;;;;;;;;5096163;28;20138;-85
2023/12/21 03:21:56;;;;;;;13.73;5.82;;;;;;;;;;5096597;28;20376;-85
2023/12/21 03:24:22;;;;;;;14.93;6.07;;;;;;;;;;5079716;28;20051;-85
2023/12/21 03:26:48;;;;;;;14.02;5.70;;;;;;;;;;5080372;28;20081;-84
2023/12/21 03:29:15;;;;;;;15.93;5.13;;;;;;;;;;5096293;28;20101;-85
2023/12/21 03:31:42;;;;;;;20.67;6.50;;;;;;;;;;5097177;28;20044;-85
2023/12/21 03:34:08;;;;;;;12.75;5.47;;;;;;;;;;5079484;28;20130;-84
2023/12/21 03:36:34;;;;;;;15.95;5.70;;;;;;;;;;5079531;28;20046;-84
2023/12/21 03:39:00;;;;;;;12.23;5.55;;;;;;;;;;5097102;28;20047;-84
2023/12/21 03:41:26;;;;;;;12.25;6.25;;;;;;;;;;5096531;28;20116;-84
2023/12/21 03:43:52;;;;;;;13.52;6.72;;;;;;;;;;5096951;28;20083;-85
2023/12/21 03:46:18;;;;;;;17.63;8.60;;;;;;;;;;5079512;28;20058;-85
2023/12/21 03:48:45;;;;;;;17.88;8.23;;;;;;;;;;5079276;28;20048;-85
2023/12/21 03:51:11;;;;;;;16.65;7.30;;;;;;;;;;5096890;28;20126;-85
2023/12/21 03:53:37;;;;;;;16.23;7.93;;;;;;;;;;5079297;28;20134;-84
2023/12/21 03:56:03;;;;;;;21.17;9.00;;;;;;;;;;5095932;28;20051;-85
2023/12/21 03:58:29;;;;;;;16.08;9.25;;;;;;;;;;5095267;28;20055;-85
2023/12/21 04:00:55;;;;;;;12.52;6.78;;;;;;;;;;5079547;28;20055;-85
2023/12/21 04:03:21;;;;;;;13.05;6.90;;;;;;;;;;5079212;28;20043;-85
2023/12/21 04:05:47;;;;;;;13.75;6.70;;;;;;;;;;5079153;28;20134;-84
2023/12/21 04:08:15;;;;;;;16.23;8.57;;;;;;;;;;5079416;28;20110;-84
2023/12/21 04:10:41;;;;;;;16.88;8.70;;;;;;;;;;5095912;28;20039;-84
2023/12/21 04:13:07;;;;;;;17.10;7.13;;;;;;;;;;5096687;28;20101;-85
2023/12/21 04:15:33;;;;;;;19.25;6.82;;;;;;;;;;5079887;28;20379;-84
2023/12/21 04:17:59;;;;;;;16.60;7.45;;;;;;;;;;5096116;28;20475;-84
2023/12/21 04:20:25;;;;;;;11.75;7.07;;;;;;;;;;5095760;28;20471;-84
2023/12/21 04:22:51;;;;;;;12.20;5.88;;;;;;;;;;5082691;28;20357;-84
2023/12/21 04:25:17;;;;;;;12.90;6.43;;;;;;;;;;5100564;28;20047;-84
2023/12/21 04:27:43;;;;;;;11.30;5.28;;;;;;;;;;5083566;28;20054;-84
2023/12/21 04:30:09;;;;;;;13.10;5.45;;;;;;;;;;5082440;28;20130;-85
2023/12/21 04:32:36;;;;;;;9.10;5.00;;;;;;;;;;5099816;28;20062;-84
2023/12/21 04:35:02;;;;;;;12.32;5.13;;;;;;;;;;5082912;28;20044;-84
2023/12/21 04:37:28;;;;;;;10.32;5.57;;;;;;;;;;5099499;28;20047;-84
2023/12/21 04:39:54;;;;;;;11.43;5.18;;;;;;;;;;5099718;28;20057;-84
2023/12/21 04:42:20;;;;;;;10.10;5.30;;;;;;;;;;5099595;28;20118;-84
2023/12/21 04:44:46;;;;;;;11.57;5.18;;;;;;;;;;5082314;28;20063;-85
2023/12/21 04:47:12;;;;;;;16.92;5.97;;;;;;;;;;5082294;28;20043;-86
2023/12/21 04:49:39;;;;;;;11.90;6.00;;;;;;;;;;5082752;28;20083;-84
2023/12/21 04:52:05;;;;;;;10.20;5.35;;;;;;;;;;5098965;28;20058;-85
2023/12/21 04:54:31;;;;;;;14.57;6.40;;;;;;;;;;5082794;28;20426;-86
2023/12/21 04:56:57;;;;;;;14.35;6.03;;;;;;;;;;5095043;28;20052;-84
2023/12/21 04:59:24;;;;;;;15.68;5.90;;;;;;;;;;5078370;28;20214;-85
2023/12/21 05:01:52;;;;;;;13.23;6.47;;;;;;;;;;5062217;28;20051;-84
2023/12/21 05:04:18;;;;;;;9.73;4.32;;;;;;;;;;5095612;28;20399;-84
2023/12/21 05:06:44;;;;;;;11.80;5.60;;;;;;;;;;5079426;28;20040;-84
2023/12/21 05:09:10;;;;;;;13.23;5.90;;;;;;;;;;5095203;28;20052;-84
2023/12/21 05:11:36;;;;;;;13.90;5.68;;;;;;;;;;5061978;28;20044;-83
2023/12/21 05:14:02;;;;;;;14.93;5.18;;;;;;;;;;5078441;28;20044;-83
2023/12/21 05:16:29;;;;;;;15.68;5.70;;;;;;;;;;5061783;28;20530;-82
2023/12/21 05:18:55;;;;;;;9.95;4.93;;;;;;;;;;5061926;28;20063;-81
2023/12/21 05:21:21;;;;;;;15.07;5.10;;;;;;;;;;5095434;28;20051;-82
2023/12/21 05:23:47;;;;;;;13.57;5.38;;;;;;;;;;5078657;28;20097;-81
2023/12/21 05:26:13;;;;;;;13.60;5.88;;;;;;;;;;5096142;28;20048;-81
2023/12/21 05:28:43;;;;;;;10.80;5.72;;;;;;;;;;5095139;28;20048;-81
2023/12/21 05:31:09;;;;;;;13.30;5.03;;;;;;;;;;5096080;28;20048;-81
2023/12/21 05:33:35;;;;;;;9.40;4.75;;;;;;;;;;5077851;28;20503;-81
2023/12/21 05:36:04;;;;;;;12.68;4.43;;;;;;;;;;5094759;28;20043;-81
2023/12/21 05:38:30;;;;;;;13.38;3.63;;;;;;;;;;5095223;28;20101;-81
2023/12/21 05:40:57;;;;;;;11.93;3.85;;;;;;;;;;5078162;28;20506;-81
2023/12/21 05:43:23;;;;;;;12.23;3.45;;;;;;;;;;5094856;28;20048;-81
2023/12/21 05:45:49;;;;;;;15.43;4.57;;;;;;;;;;5095577;28;20052;-81
2023/12/21 05:48:15;;;;;;;11.23;3.70;;;;;;;;;;5094992;28;20044;-81
2023/12/21 05:50:41;;;;;;;10.55;3.38;;;;;;;;;;5078091;28;20058;-81
2023/12/21 05:53:07;;;;;;;13.45;3.72;;;;;;;;;;5077889;28;20069;-80
2023/12/21 05:55:33;;;;;;;10.80;3.15;;;;;;;;;;5094549;28;20051;-81
2023/12/21 05:57:59;;;;;;;14.93;3.78;;;;;;;;;;5093971;28;20125;-82
2023/12/21 06:00:26;;;;;;;12.02;2.90;;;;;;;;;;5094493;28;20050;-81
2023/12/21 06:02:52;;;;;;;12.52;3.00;;;;;;;;;;5077642;28;20369;-82
2023/12/21 06:05:18;;;;;;;13.10;2.67;;;;;;;;;;5094472;28;20113;-82
2023/12/21 06:07:44;;;;;;;11.32;3.00;;;;;;;;;;5077517;28;20052;-82
2023/12/21 06:10:10;;;;;;;16.30;2.63;;;;;;;;;;5094318;28;20488;-82
2023/12/21 06:12:36;;;;;;;13.77;2.13;;;;;;;;;;5077445;28;20047;-82
2023/12/21 06:15:04;;;;;;;9.13;1.90;;;;;;;;;;5077449;28;20052;-84
2023/12/21 06:17:30;;;;;;;12.18;1.65;;;;;;;;;;5077313;28;20040;-83
2023/12/21 06:19:56;;;;;;;13.45;2.20;;;;;;;;;;5094073;28;20048;-84
2023/12/21 06:22:22;;;;;;;7.97;1.85;;;;;;;;;;5076951;28;20135;-83
2023/12/21 06:24:49;;;;;;;8.40;1.17;;;;;;;;;;5060630;28;20043;-83
2023/12/21 06:27:16;;;;;;;15.00;2.42;;;;;;;;;;5094000;28;20097;-83
2023/12/21 06:29:42;;;;;;;11.88;1.83;;;;;;;;;;5094742;28;20046;-84
2023/12/21 06:32:08;;;;;;;10.55;2.40;;;;;;;;;;5093903;28;20126;-84
2023/12/21 06:34:35;;;;;;;9.68;2.10;;;;;;;;;;5077067;28;20052;-85
2023/12/21 06:37:03;;;;;;;6.53;1.23;;;;;;;;;;5077503;28;20431;-85
2023/12/21 06:39:31;;;;;;;11.02;2.55;;;;;;;;;;5060366;28;20087;-85
2023/12/21 06:41:57;;;;;;;12.65;2.65;;;;;;;;;;5077122;28;20075;-85
2023/12/21 06:44:23;;;;;;;11.48;2.13;;;;;;;;;;5076330;28;20048;-85
2023/12/21 06:46:50;;;;;;;7.45;2.22;;;;;;;;;;5077055;28;20101;-85
2023/12/21 06:49:17;;;;;;;7.03;1.33;;;;;;;;;;5093846;28;20404;-85
2023/12/21 06:51:44;;;;;;;10.80;2.53;;;;;;;;;;5060046;28;20055;-84
2023/12/21 06:54:11;;;;;;;8.80;1.85;;;;;;;;;;5093542;28;20060;-84
2023/12/21 06:56:38;;;;;;;10.77;1.92;;;;;;;;;;5094884;28;20036;-85
2023/12/21 06:59:04;;;;;;;7.93;1.50;;;;;;;;;;5096653;28;20105;-85
2023/12/21 07:01:32;;;;;;;9.68;2.05;;;;;;;;;;5096750;28;20055;-84
2023/12/21 07:03:58;;;;;;;13.80;1.67;;;;;;;;;;5079971;28;20047;-84
2023/12/21 07:06:28;;;;;;;8.23;1.50;;;;;;;;;;5096514;28;20086;-84
2023/12/21 07:08:54;;;;;;;9.35;1.65;;;;;;;;;;5080275;28;20455;-84
2023/12/21 07:11:20;;;;;;;9.13;1.48;;;;;;;;;;5096921;28;20052;-84
2023/12/21 07:13:47;;;;;;;6.97;1.75;;;;;;;;;;5096054;28;20081;-84
2023/12/21 07:16:13;;;;;;;7.55;1.52;;;;;;;;;;5079509;28;20046;-85
2023/12/21 07:18:39;;;;;;;8.95;2.70;;;;;;;;;;5079433;28;20494;-85
2023/12/21 07:21:05;;;;;;;9.90;2.80;;;;;;;;;;5096685;28;20048;-84
2023/12/21 07:23:31;;;;;;;7.72;2.08;;;;;;;;;;5079699;28;20391;-84
2023/12/21 07:25:58;;;;;;;8.25;1.45;;;;;;;;;;5079561;28;20054;-84
2023/12/21 07:28:25;;;;;;;5.43;1.63;;;;;;;;;;5096651;28;20046;-83
2023/12/21 07:30:51;;;;;;;5.20;1.10;;;;;;;;;;5096594;28;20490;-82
2023/12/21 07:33:17;;;;;;;4.03;0.80;;;;;;;;;;5079719;28;20107;-82
2023/12/21 07:35:44;;;;;;;8.15;1.33;;;;;;;;;;5096523;28;20051;-83
2023/12/21 07:38:10;;;;;;;6.88;1.42;;;;;;;;;;5096224;28;20048;-82
2023/12/21 07:40:37;;;;;;;5.07;1.33;;;;;;;;;;5079660;28;20046;-81
2023/12/21 07:43:04;;;;;;;4.13;0.98;;;;;;;;;;5096206;28;20097;-81
2023/12/21 07:45:30;;;;;;;6.35;0.90;;;;;;;;;;5079341;28;20047;-81
2023/12/21 07:47:56;;;;;;;6.78;0.90;;;;;;;;;;5079380;28;20054;-80
2023/12/21 07:50:22;;;;;;;3.13;0.70;;;;;;;;;;5096155;28;20050;-80
2023/12/21 07:52:48;;;;;;;5.47;0.95;;;;;;;;;;5113988;28;20051;-79
2023/12/21 07:55:14;;;;;;;4.13;0.63;;;;;;;;;;5097182;28;20435;-79
2023/12/21 07:57:40;;;;;;;3.15;0.60;;;;;;;;;;5118459;28;20095;-79
2023/12/21 08:00:09;;;;;;;5.10;0.88;;;;;;;;;;5101067;28;20150;-79
2023/12/21 08:02:40;;;;;;;2.90;0.60;;;;;;;;;;5099991;28;20094;-79
2023/12/21 08:05:06;;;;;;;3.33;0.80;;;;;;;;;;5100996;28;20047;-79
2023/12/21 08:07:32;;;;;;;2.78;0.57;;;;;;;;;;5100071;28;20058;-79
2023/12/21 08:10:01;;;;;;;4.18;0.68;;;;;;;;;;5099761;28;20047;-80
2023/12/21 08:12:27;;;;;;;1.83;0.40;;;;;;;;;;5100191;28;20039;-79
2023/12/21 08:14:53;;;;;;;3.55;0.50;;;;;;;;;;5099931;28;20040;-79
2023/12/21 08:17:20;;;;;;;5.05;0.60;;;;;;;;;;5082714;28;20082;-79
2023/12/21 08:19:46;;;;;;;5.88;0.60;;;;;;;;;;5099572;28;20048;-78
2023/12/21 08:22:12;;;;;;;4.18;0.70;;;;;;;;;;5099487;28;20050;-79
2023/12/21 08:24:38;;;;;;;5.10;0.57;;;;;;;;;;5099795;28;20101;-78
2023/12/21 08:27:06;;;;;;;4.93;0.57;;;;;;;;;;5099693;28;20515;-78
2023/12/21 08:29:32;;;;;;;4.80;0.98;;;;;;;;;;5117649;28;20048;-79
2023/12/21 08:31:58;;;;;;;1.20;0.30;;;;;;;;;;5100326;28;20047;-79
2023/12/21 08:34:24;;;;;;;3.00;0.50;;;;;;;;;;5099595;28;20050;-79
2023/12/21 08:36:50;;;;;;;3.85;0.38;;;;;;;;;;5082785;28;20043;-80
2023/12/21 08:39:16;;;;;;;3.17;0.35;;;;;;;;;;5099525;28;20089;-80
2023/12/21 08:41:42;;;;;;;4.65;0.65;;;;;;;;;;5099359;28;20036;-79
2023/12/21 08:44:08;;;;;;;2.67;0.52;;;;;;;;;;5117374;28;20044;-79
2023/12/21 08:46:35;;;;;;;1.67;0.20;;;;;;;;;;5082466;28;20051;-79
2023/12/21 08:49:01;;;;;;;1.77;0.57;;;;;;;;;;5082529;28;20057;-79
2023/12/21 08:51:27;;;;;;;4.47;0.57;;;;;;;;;;5099228;28;20047;-79
2023/12/21 08:53:53;;;;;;;1.55;0.25;;;;;;;;;;5099224;28;20040;-79
2023/12/21 08:56:19;;;;;;;3.92;0.80;;;;;;;;;;5099909;28;20440;-80
2023/12/21 08:58:45;;;;;;;4.75;0.38;;;;;;;;;;5098704;28;20117;-80
2023/12/21 09:01:11;;;;;;;3.38;0.50;;;;;;;;;;5099150;28;20377;-80
2023/12/21 09:03:38;;;;;;;1.95;0.40;;;;;;;;;;5082491;28;20050;-80
2023/12/21 09:06:04;;;;;;;6.60;0.70;;;;;;;;;;5099308;28;20052;-80
2023/12/21 09:08:30;;;;;;;4.82;0.50;;;;;;;;;;5098816;28;20128;-80
2023/12/21 09:10:56;;;;;;;4.43;0.95;;;;;;;;;;5098892;28;20054;-80
2023/12/21 09:13:22;;;;;;;6.53;1.20;;;;;;;;;;5098799;28;20395;-81
2023/12/21 09:15:49;;;;;;;6.95;1.00;;;;;;;;;;5098612;28;20043;-81
2023/12/21 09:18:15;;;;;;;4.97;1.20;;;;;;;;;;5098410;28;20499;-80
2023/12/21 09:20:41;;;;;;;7.95;0.88;;;;;;;;;;5098738;28;20044;-80
2023/12/21 09:23:07;;;;;;;5.00;1.00;;;;;;;;;;5098877;28;20117;-80
2023/12/21 09:25:33;;;;;;;5.70;0.70;;;;;;;;;;5098334;28;20040;-80
2023/12/21 09:27:59;;;;;;;6.00;0.50;;;;;;;;;;5098124;28;20561;-81
2023/12/21 09:30:26;;;;;;;3.88;0.50;;;;;;;;;;5098816;28;20135;-80
2023/12/21 09:32:52;;;;;;;7.90;0.57;;;;;;;;;;5098858;28;20059;-80
2023/12/21 09:35:19;;;;;;;7.15;0.70;;;;;;;;;;5116445;28;20051;-79
2023/12/21 09:37:45;;;;;;;5.85;0.50;;;;;;;;;;5116329;28;20056;-80
2023/12/21 09:40:15;;;;;;;5.60;0.68;;;;;;;;;;5116396;28;20130;-79
2023/12/21 09:42:44;;;;;;;8.18;0.60;;;;;;;;;;5099106;28;20086;-79
2023/12/21 09:45:14;;;;;;;6.35;0.52;;;;;;;;;;5116154;28;20058;-80
2023/12/21 09:47:42;;;;;;;2.92;0.30;;;;;;;;;;5081237;28;20094;-79
2023/12/21 09:50:08;;;;;;;5.50;0.60;;;;;;;;;;5097887;28;20043;-79
2023/12/21 09:52:37;;;;;;;4.38;0.68;;;;;;;;;;5115920;28;20040;-83
2023/12/21 09:55:03;;;;;;;3.88;0.40;;;;;;;;;;5081147;28;20043;-80
2023/12/21 09:57:29;;;;;;;3.17;0.22;;;;;;;;;;5097420;28;20055;-80
2023/12/21 09:59:57;;;;;;;8.77;0.45;;;;;;;;;;5115834;28;20135;-80
2023/12/21 10:02:26;;;;;;;9.50;0.70;;;;;;;;;;5098428;28;20416;-80
2023/12/21 10:04:53;;;;;;;4.78;0.50;;;;;;;;;;5080882;28;20039;-80
2023/12/21 10:07:19;;;;;;;6.10;0.82;;;;;;;;;;5080574;28;20399;-81
2023/12/21 10:09:46;;;;;;;5.65;0.45;;;;;;;;;;5115676;28;20043;-80
2023/12/21 10:12:12;;;;;;;7.63;0.57;;;;;;;;;;5097670;28;20048;-80
2023/12/21 10:14:38;;;;;;;8.63;0.60;;;;;;;;;;5097561;28;20373;-81
2023/12/21 10:17:10;;;;;;;11.73;1.48;;;;;;;;;;5097442;28;20126;-80
2023/12/21 10:19:36;;;;;;;10.68;0.88;;;;;;;;;;5080734;28;20134;-80
2023/12/21 10:22:02;;;;;;;12.15;1.35;;;;;;;;;;5097251;28;20046;-81
2023/12/21 10:24:28;;;;;;;13.18;0.80;;;;;;;;;;5097710;28;20112;-81
2023/12/21 10:26:54;;;;;;;9.07;1.00;;;;;;;;;;5097374;28;20061;-81
2023/12/21 10:29:20;;;;;;;9.15;1.02;;;;;;;;;;5080518;28;20497;-81
2023/12/21 10:31:47;;;;;;;6.22;0.52;;;;;;;;;;5081165;28;20043;-82
2023/12/21 10:34:14;;;;;;;10.27;0.80;;;;;;;;;;5097810;28;20433;-82
2023/12/21 10:36:44;;;;;;;8.90;0.93;;;;;;;;;;5080351;28;20380;-82
2023/12/21 10:39:11;;;;;;;8.68;1.00;;;;;;;;;;5097098;28;20047;-81
2023/12/21 10:41:37;;;;;;;10.55;0.93;;;;;;;;;;5097045;28;20487;-82
2023/12/21 10:44:03;;;;;;;9.88;0.88;;;;;;;;;;5080242;28;20040;-83
2023/12/21 10:46:30;;;;;;;7.40;0.80;;;;;;;;;;5097092;28;20043;-83
2023/12/21 10:49:01;;;;;;;6.15;0.55;;;;;;;;;;5097229;28;20048;-84
2023/12/21 10:51:37;;;;;;;8.25;0.95;;;;;;;;;;5080820;28;20134;-82
2023/12/21 10:54:07;;;;;;;6.93;0.50;;;;;;;;;;5081828;28;20051;-81
2023/12/21 10:56:34;;;;;;;13.32;1.05;;;;;;;;;;5079892;28;20472;-80
2023/12/21 10:59:05;;;;;;;9.90;0.77;;;;;;;;;;5096122;28;20043;-81
2023/12/21 11:01:32;;;;;;;8.35;0.57;;;;;;;;;;5097609;28;20139;-80
2023/12/21 11:04:00;;;;;;;8.88;1.08;;;;;;;;;;5096729;28;20050;-80
2023/12/21 11:06:28;;;;;;;10.38;1.38;;;;;;;;;;5079776;28;20040;-80
2023/12/21 11:08:54;;;;;;;11.02;0.88;;;;;;;;;;5096647;28;20451;-81
2023/12/21 11:11:23;;;;;;;9.70;1.20;;;;;;;;;;5096438;28;20044;-81
2023/12/21 11:13:55;;;;;;;9.10;0.70;;;;;;;;;;5079636;28;20392;-81
2023/12/21 11:16:26;;;;;;;11.80;1.02;;;;;;;;;;5096383;28;20079;-81
2023/12/21 11:18:53;;;;;;;8.77;0.50;;;;;;;;;;5096384;28;20484;-81
2023/12/21 11:21:22;;;;;;;10.05;1.38;;;;;;;;;;5096321;28;20054;-82
2023/12/21 11:23:48;;;;;;;6.55;0.85;;;;;;;;;;5079944;28;20048;-81
2023/12/21 11:26:20;;;;;;;7.22;0.50;;;;;;;;;;5079832;28;20078;-83
2023/12/21 11:28:46;;;;;;;6.85;0.55;;;;;;;;;;5079824;28;20388;-84
2023/12/21 11:31:13;;;;;;;12.43;0.90;;;;;;;;;;5096135;28;20055;-83
2023/12/21 11:33:40;;;;;;;12.45;1.20;;;;;;;;;;5097061;28;20104;-83
2023/12/21 11:36:06;;;;;;;7.18;0.80;;;;;;;;;;5096443;28;20089;-84
2023/12/21 11:38:47;;;;;;;8.10;0.63;;;;;;;;;;5080250;28;20047;-83
2023/12/21 11:41:16;;;;;;;10.20;0.70;;;;;;;;;;5079306;28;20040;-84
2023/12/21 11:43:55;;;;;;;11.43;0.90;;;;;;;;;;5096246;28;20134;-83
2023/12/21 11:46:21;;;;;;;10.48;1.00;;;;;;;;;;5096192;28;20054;-85
2023/12/21 11:48:47;;;;;;;12.27;1.10;;;;;;;;;;5079306;28;20044;-84
2023/12/21 11:51:13;;;;;;;12.50;1.10;;;;;;;;;;5096002;28;20085;-84
2023/12/21 11:53:39;;;;;;;14.70;1.40;;;;;;;;;;5096068;28;20189;-84
2023/12/21 11:56:13;;;;;;;15.38;1.83;;;;;;;;;;5095911;28;20043;-85
2023/12/21 11:58:40;;;;;;;16.95;1.77;;;;;;;;;;5095616;28;20142;-83
2023/12/21 12:01:07;;;;;;;14.77;1.95;;;;;;;;;;5095949;28;20181;-83
2023/12/21 12:03:33;;;;;;;15.77;2.03;;;;;;;;;;5079125;28;20153;-84
2023/12/21 12:06:04;;;;;;;14.73;1.60;;;;;;;;;;5079933;28;20075;-84
2023/12/21 12:08:33;;;;;;;16.55;1.73;;;;;;;;;;5095626;28;20498;-83
2023/12/21 12:10:59;;;;;;;17.75;1.83;;;;;;;;;;5095909;28;20048;-84
2023/12/21 12:13:25;;;;;;;16.95;1.75;;;;;;;;;;5079350;28;20051;-83
2023/12/21 12:15:52;;;;;;;14.98;1.75;;;;;;;;;;5095891;28;20065;-84
2023/12/21 12:18:22;;;;;;;21.15;1.95;;;;;;;;;;5095513;28;20101;-83
2023/12/21 12:20:48;;;;;;;16.40;1.77;;;;;;;;;;5096031;28;20055;-85
2023/12/21 12:23:17;;;;;;;16.83;1.95;;;;;;;;;;5095808;28;20056;-83
2023/12/21 12:25:43;;;;;;;15.07;1.98;;;;;;;;;;5095674;28;20054;-83
2023/12/21 12:28:10;;;;;;;11.45;1.23;;;;;;;;;;5078868;28;20097;-84
2023/12/21 12:30:36;;;;;;;12.82;1.80;;;;;;;;;;5079128;28;20135;-84
2023/12/21 12:33:05;;;;;;;12.60;1.45;;;;;;;;;;5095768;28;20059;-84
2023/12/21 12:35:32;;;;;;;14.75;1.88;;;;;;;;;;5078500;28;20069;-84
2023/12/21 12:37:58;;;;;;;18.05;2.45;;;;;;;;;;5078902;28;20092;-85
2023/12/21 12:40:24;;;;;;;14.77;2.08;;;;;;;;;;5078691;28;20105;-84
2023/12/21 12:42:51;;;;;;;13.95;2.13;;;;;;;;;;5097472;28;20039;-84
2023/12/21 12:45:18;;;;;;;13.50;2.03;;;;;;;;;;5099399;28;20048;-84
2023/12/21 12:47:44;;;;;;;12.45;1.75;;;;;;;;;;5082863;28;20480;-84
2023/12/21 12:50:11;;;;;;;16.63;1.60;;;;;;;;;;5082527;28;20044;-84
2023/12/21 12:52:41;;;;;;;15.85;1.60;;;;;;;;;;5082112;28;20525;-85
2023/12/21 12:55:17;;;;;;;11.43;1.50;;;;;;;;;;5099380;28;20044;-84
2023/12/21 12:57:50;;;;;;;14.40;2.08;;;;;;;;;;5082012;28;20475;-85
2023/12/21 13:00:17;;;;;;;17.52;2.53;;;;;;;;;;5099955;28;20047;-86
2023/12/21 13:02:43;;;;;;;19.00;2.35;;;;;;;;;;5099306;28;20044;-85
2023/12/21 13:05:09;;;;;;;15.88;1.50;;;;;;;;;;5098956;28;20050;-84
2023/12/21 13:07:38;;;;;;;13.50;2.10;;;;;;;;;;5082006;28;20054;-83
2023/12/21 13:10:05;;;;;;;14.02;1.73;;;;;;;;;;5082168;28;20531;-83
2023/12/21 13:12:31;;;;;;;14.98;2.17;;;;;;;;;;5098831;28;20043;-81
2023/12/21 13:14:57;;;;;;;18.40;2.97;;;;;;;;;;5098669;28;20058;-82
2023/12/21 13:17:29;;;;;;;17.08;2.05;;;;;;;;;;5082756;28;20145;-82
2023/12/21 13:19:55;;;;;;;20.45;2.35;;;;;;;;;;5099357;28;20047;-82
2023/12/21 13:22:22;;;;;;;24.20;2.83;;;;;;;;;;5099100;28;20048;-84
2023/12/21 13:24:48;;;;;;;14.90;1.92;;;;;;;;;;5098267;28;20048;-81
2023/12/21 13:27:14;;;;;;;19.23;2.95;;;;;;;;;;5098508;28;20079;-81
2023/12/21 13:29:40;;;;;;;23.65;3.15;;;;;;;;;;5081479;28;20044;-82
2023/12/21 13:32:06;;;;;;;15.23;2.13;;;;;;;;;;5081514;28;20085;-81
2023/12/21 13:34:32;;;;;;;16.15;2.67;;;;;;;;;;5098609;28;20116;-82
2023/12/21 13:36:59;;;;;;;14.45;1.85;;;;;;;;;;5081224;28;20043;-82
2023/12/21 13:39:28;;;;;;;27.65;3.03;;;;;;;;;;5081759;28;20050;-81
2023/12/21 13:41:55;;;;;;;14.85;2.63;;;;;;;;;;5098391;28;20093;-81
2023/12/21 13:44:22;;;;;;;15.88;2.72;;;;;;;;;;5082173;28;20051;-81
2023/12/21 13:46:48;;;;;;;20.23;3.08;;;;;;;;;;5098093;28;20480;-83
2023/12/21 13:49:14;;;;;;;17.40;2.60;;;;;;;;;;5098109;28;20100;-83
2023/12/21 13:51:40;;;;;;;20.83;3.53;;;;;;;;;;5097966;28;20039;-82
2023/12/21 13:54:06;;;;;;;20.88;3.22;;;;;;;;;;5097953;28;20043;-80
2023/12/21 13:56:33;;;;;;;20.75;3.00;;;;;;;;;;5098025;28;20143;-80
2023/12/21 13:58:59;;;;;;;24.45;2.30;;;;;;;;;;5097681;28;20067;-80
2023/12/21 14:01:25;;;;;;;22.42;3.83;;;;;;;;;;5097707;28;20100;-81
2023/12/21 14:03:51;;;;;;;23.40;3.72;;;;;;;;;;5081004;28;20055;-81
2023/12/21 14:06:18;;;;;;;18.95;3.03;;;;;;;;;;5080819;28;20486;-81
2023/12/21 14:08:44;;;;;;;13.90;1.83;;;;;;;;;;5080825;28;20062;-81
2023/12/21 14:11:10;;;;;;;19.27;3.30;;;;;;;;;;5097732;28;20047;-81
2023/12/21 14:13:36;;;;;;;15.10;3.10;;;;;;;;;;5097628;28;20540;-81
2023/12/21 14:16:03;;;;;;;20.42;3.30;;;;;;;;;;5097502;28;20043;-81
2023/12/21 14:18:29;;;;;;;19.33;2.55;;;;;;;;;;5097339;28;20043;-81
2023/12/21 14:20:55;;;;;;;16.85;3.80;;;;;;;;;;5097393;28;20058;-81
2023/12/21 14:23:21;;;;;;;23.30;3.03;;;;;;;;;;5097194;28;20047;-81
2023/12/21 14:25:51;;;;;;;19.95;3.00;;;;;;;;;;5097911;28;20520;-81
2023/12/21 14:28:17;;;;;;;20.40;2.80;;;;;;;;;;5097043;28;20460;-81
2023/12/21 14:30:43;;;;;;;14.25;2.53;;;;;;;;;;5081159;28;20119;-81